Terminal Aerodrome Forecast
Issued by NWS Northern Indiana

Home | Current Version | Previous Version | Text Only | Print | Product List | Glossary On
Versions: 1 2 3 4 5 6 7 8 9 10 11 12 13 14 15 16
076
FTUS43 KIWX 011731
TAFFWA
TAF
KFWA 011731Z 0118/0218 27022G35KT P6SM VCSH OVC020
      TEMPO 0118/0120 4SM -RA BR OVC010
     FM020400 30018G30KT P6SM OVC030
     FM021100 28010G18KT P6SM SCT030
     FM021400 28010KT P6SM BKN040=

USA.gov is the U.S. government's official web portal to all federal, state and local government web resources and services.